sensor_id;sensor_type;location;lat;lon;timestamp;pressure;altitude;pressure_sealevel;temperature;humidity
68197;BME280;55019;49.382;11.358;2022-09-29T00:01:05;95208.97;;;5.43;93.95
68197;BME280;55019;49.382;11.358;2022-09-29T00:03:31;95211.31;;;5.61;92.95
68197;BME280;55019;49.382;11.358;2022-09-29T00:05:56;95209.25;;;5.48;93.37
68197;BME280;55019;49.382;11.358;2022-09-29T00:08:27;95209.25;;;5.48;94.18
68197;BME280;55019;49.382;11.358;2022-09-29T00:10:53;95198.84;;;5.58;93.95
68197;BME280;55019;49.382;11.358;2022-09-29T00:13:19;95208.75;;;5.61;93.71
68197;BME280;55019;49.382;11.358;2022-09-29T00:15:53;95206.41;;;5.43;93.95
68197;BME280;55019;49.382;11.358;2022-09-29T00:18:19;95197.22;;;5.57;93.45
68197;BME280;55019;49.382;11.358;2022-09-29T00:20:55;95206.88;;;5.47;93.58
68197;BME280;55019;49.382;11.358;2022-09-29T00:23:23;95212.78;;;5.47;94.03
68197;BME280;55019;49.382;11.358;2022-09-29T00:25:58;95210.81;;;5.57;92.07
68197;BME280;55019;49.382;11.358;2022-09-29T00:28:23;95211.84;;;5.40;92.48
68197;BME280;55019;49.382;11.358;2022-09-29T00:30:49;95212.03;;;5.31;92.96
68197;BME280;55019;49.382;11.358;2022-09-29T00:33:14;95213.00;;;5.22;93.44
68197;BME280;55019;49.382;11.358;2022-09-29T00:35:39;95209.19;;;5.10;94.43
68197;BME280;55019;49.382;11.358;2022-09-29T00:38:05;95208.72;;;5.06;94.75
68197;BME280;55019;49.382;11.358;2022-09-29T00:40:30;95208.72;;;4.98;94.41
68197;BME280;55019;49.382;11.358;2022-09-29T00:42:55;95206.97;;;4.99;94.85
68197;BME280;55019;49.382;11.358;2022-09-29T00:45:22;95207.97;;;4.90;95.00
68197;BME280;55019;49.382;11.358;2022-09-29T00:48:05;95210.94;;;5.09;93.86
68197;BME280;55019;49.382;11.358;2022-09-29T00:50:43;95204.91;;;4.94;94.14
68197;BME280;55019;49.382;11.358;2022-09-29T00:53:11;95199.94;;;4.93;94.68
68197;BME280;55019;49.382;11.358;2022-09-29T00:55:42;95205.09;;;4.85;95.03
68197;BME280;55019;49.382;11.358;2022-09-29T01:00:42;95204.28;;;4.76;95.09
68197;BME280;55019;49.382;11.358;2022-09-29T01:03:11;95207.97;;;4.90;94.83
68197;BME280;55019;49.382;11.358;2022-09-29T01:05:43;95199.78;;;4.94;94.65
68197;BME280;55019;49.382;11.358;2022-09-29T01:08:27;95198.81;;;4.95;94.43
68197;BME280;55019;49.382;11.358;2022-09-29T01:10:55;95213.53;;;5.01;93.73
68197;BME280;55019;49.382;11.358;2022-09-29T01:13:21;95205.06;;;5.01;93.10
68197;BME280;55019;49.382;11.358;2022-09-29T01:15:47;95199.28;;;5.07;93.01
68197;BME280;55019;49.382;11.358;2022-09-29T01:18:13;95205.34;;;5.14;92.87
68197;BME280;55019;49.382;11.358;2022-09-29T01:20:47;95206.97;;;4.83;93.03
68197;BME280;55019;49.382;11.358;2022-09-29T01:32:03;95202.97;;;4.96;92.19
68197;BME280;55019;49.382;11.358;2022-09-29T01:34:56;95199.31;;;4.99;91.94
68197;BME280;55019;49.382;11.358;2022-09-29T01:40:33;95203.16;;;4.87;92.77
68197;BME280;55019;49.382;11.358;2022-09-29T01:43:15;95201.84;;;4.83;93.34
68197;BME280;55019;49.382;11.358;2022-09-29T01:45:48;95212.41;;;5.04;92.76
68197;BME280;55019;49.382;11.358;2022-09-29T01:48:22;95210.19;;;5.01;92.53
68197;BME280;55019;49.382;11.358;2022-09-29T01:51:02;95185.56;;;4.76;92.70
68197;BME280;55019;49.382;11.358;2022-09-29T01:53:42;95211.16;;;4.92;93.16
68197;BME280;55019;49.382;11.358;2022-09-29T01:56:35;95184.91;;;4.82;92.48
68197;BME280;55019;49.382;11.358;2022-09-29T01:59:17;95204.13;;;4.94;93.12
68197;BME280;55019;49.382;11.358;2022-09-29T02:01:45;95200.41;;;5.04;93.00
68197;BME280;55019;49.382;11.358;2022-09-29T02:04:17;95202.66;;;4.99;93.39
68197;BME280;55019;49.382;11.358;2022-09-29T02:06:48;95203.28;;;5.01;94.03
68197;BME280;55019;49.382;11.358;2022-09-29T02:09:21;95208.59;;;5.00;94.08
68197;BME280;55019;49.382;11.358;2022-09-29T02:11:50;95213.69;;;5.00;94.14
68197;BME280;55019;49.382;11.358;2022-09-29T02:14:44;95199.78;;;4.94;95.11
68197;BME280;55019;49.382;11.358;2022-09-29T02:17:15;95208.88;;;5.13;95.11
68197;BME280;55019;49.382;11.358;2022-09-29T02:19:45;95206.16;;;5.14;94.57
68197;BME280;55019;49.382;11.358;2022-09-29T02:22:11;95210.00;;;5.10;95.53
68197;BME280;55019;49.382;11.358;2022-09-29T02:24:43;95204.38;;;5.23;94.98
68197;BME280;55019;49.382;11.358;2022-09-29T02:27:09;95204.56;;;5.13;95.67
68197;BME280;55019;49.382;11.358;2022-09-29T02:29:35;95207.59;;;5.09;95.68
68197;BME280;55019;49.382;11.358;2022-09-29T02:32:03;95206.16;;;5.14;95.66
68197;BME280;55019;49.382;11.358;2022-09-29T02:34:34;95217.47;;;5.28;95.59
68197;BME280;55019;49.382;11.358;2022-09-29T02:37:20;95205.97;;;5.24;95.45
68197;BME280;55019;49.382;11.358;2022-09-29T03:01:52;95209.22;;;5.02;94.39
68197;BME280;55019;49.382;11.358;2022-09-29T03:04:20;95203.47;;;4.92;94.76
68197;BME280;55019;49.382;11.358;2022-09-29T03:06:46;95203.47;;;4.92;94.51
68197;BME280;55019;49.382;11.358;2022-09-29T03:09:12;95206.00;;;4.84;94.49
68197;BME280;55019;49.382;11.358;2022-09-29T03:11:37;95209.88;;;4.96;94.24
68197;BME280;55019;49.382;11.358;2022-09-29T03:14:03;95202.97;;;4.96;93.84
68197;BME280;55019;49.382;11.358;2022-09-29T03:16:28;95208.88;;;5.05;92.62
68197;BME280;55019;49.382;11.358;2022-09-29T03:18:54;95207.59;;;5.09;92.62
68197;BME280;55019;49.382;11.358;2022-09-29T03:21:21;95206.34;;;4.89;92.84
68197;BME280;55019;49.382;11.358;2022-09-29T03:23:46;95199.47;;;4.81;92.78
68197;BME280;55019;49.382;11.358;2022-09-29T03:26:11;95198.97;;;4.78;92.56
68197;BME280;55019;49.382;11.358;2022-09-29T03:28:37;95206.00;;;4.84;92.20
68197;BME280;55019;49.382;11.358;2022-09-29T03:31:06;95208.91;;;4.73;92.47
68197;BME280;55019;49.382;11.358;2022-09-29T03:33:34;95208.28;;;4.55;93.01
68197;BME280;55019;49.382;11.358;2022-09-29T03:36:03;95199.66;;;4.56;92.93
68197;BME280;55019;49.382;11.358;2022-09-29T03:38:30;95210.66;;;4.56;93.24
68197;BME280;55019;49.382;11.358;2022-09-29T03:40:58;95215.31;;;4.45;93.51
68197;BME280;55019;49.382;11.358;2022-09-29T03:43:23;95215.44;;;4.43;94.03
68197;BME280;55019;49.382;11.358;2022-09-29T03:45:50;95208.25;;;4.31;94.60
68197;BME280;55019;49.382;11.358;2022-09-29T03:48:17;95210.34;;;4.43;94.88
68197;BME280;55019;49.382;11.358;2022-09-29T03:50:47;95208.75;;;4.42;95.03
68197;BME280;55019;49.382;11.358;2022-09-29T03:53:13;95220.41;;;4.37;94.23
68197;BME280;55019;49.382;11.358;2022-09-29T03:55:39;95215.91;;;4.31;94.50
68197;BME280;55019;49.382;11.358;2022-09-29T03:58:04;95226.44;;;4.28;95.01
68197;BME280;55019;49.382;11.358;2022-09-29T04:00:30;95228.22;;;4.35;94.57
68197;BME280;55019;49.382;11.358;2022-09-29T04:02:56;95208.88;;;4.33;95.78
68197;BME280;55019;49.382;11.358;2022-09-29T04:05:22;95210.00;;;4.30;95.62
68197;BME280;55019;49.382;11.358;2022-09-29T04:07:47;95216.91;;;4.46;95.64
68197;BME280;55019;49.382;11.358;2022-09-29T04:10:13;95213.06;;;4.50;96.11
68197;BME280;55019;49.382;11.358;2022-09-29T04:12:39;95217.22;;;4.51;95.62
68197;BME280;55019;49.382;11.358;2022-09-29T04:15:05;95219.59;;;4.52;96.66
68197;BME280;55019;49.382;11.358;2022-09-29T04:17:31;95213.72;;;4.52;97.23
68197;BME280;55019;49.382;11.358;2022-09-29T04:19:57;95211.78;;;4.54;96.89
68197;BME280;55019;49.382;11.358;2022-09-29T04:22:22;95217.22;;;4.67;96.75
68197;BME280;55019;49.382;11.358;2022-09-29T04:24:48;95216.91;;;4.62;96.82
68197;BME280;55019;49.382;11.358;2022-09-29T04:27:14;95221.38;;;4.76;96.19
68197;BME280;55019;49.382;11.358;2022-09-29T04:29:40;95217.88;;;4.85;95.87
68197;BME280;55019;49.382;11.358;2022-09-29T04:32:05;95214.03;;;4.73;96.27
68197;BME280;55019;49.382;11.358;2022-09-29T04:34:31;95212.59;;;4.70;95.94
68197;BME280;55019;49.382;11.358;2022-09-29T04:36:57;95217.84;;;4.77;95.74
68197;BME280;55019;49.382;11.358;2022-09-29T04:39:22;95220.41;;;4.69;96.02
68197;BME280;55019;49.382;11.358;2022-09-29T04:41:48;95223.28;;;4.74;96.24
68197;BME280;55019;49.382;11.358;2022-09-29T04:44:13;95218.03;;;4.75;96.57
68197;BME280;55019;49.382;11.358;2022-09-29T04:46:39;95228.91;;;4.69;96.64
68197;BME280;55019;49.382;11.358;2022-09-29T04:49:04;95223.75;;;4.53;97.16
68197;BME280;55019;49.382;11.358;2022-09-29T04:51:29;95223.63;;;4.71;96.82
68197;BME280;55019;49.382;11.358;2022-09-29T04:53:57;95215.16;;;4.62;97.36
68197;BME280;55019;49.382;11.358;2022-09-29T04:56:22;95224.56;;;4.78;96.66
68197;BME280;55019;49.382;11.358;2022-09-29T04:58:47;95222.50;;;4.73;96.52
68197;BME280;55019;49.382;11.358;2022-09-29T05:01:14;95234.16;;;4.84;96.92
68197;BME280;55019;49.382;11.358;2022-09-29T05:03:40;95223.63;;;4.79;96.98
68197;BME280;55019;49.382;11.358;2022-09-29T05:06:07;95217.38;;;4.81;97.47
68197;BME280;55019;49.382;11.358;2022-09-29T05:08:33;95215.78;;;4.88;97.46
68197;BME280;55019;49.382;11.358;2022-09-29T05:11:03;95217.38;;;4.89;97.64
68197;BME280;55019;49.382;11.358;2022-09-29T05:13:29;95211.13;;;4.84;97.33
68197;BME280;55019;49.382;11.358;2022-09-29T05:15:55;95211.31;;;4.90;97.27
68197;BME280;55019;49.382;11.358;2022-09-29T05:18:22;95216.59;;;4.89;97.34
68197;BME280;55019;49.382;11.358;2022-09-29T05:20:47;95209.41;;;4.76;97.56
68197;BME280;55019;49.382;11.358;2022-09-29T05:23:13;95210.19;;;4.85;98.50
68197;BME280;55019;49.382;11.358;2022-09-29T05:25:38;95206.34;;;4.89;97.57
68197;BME280;55019;49.382;11.358;2022-09-29T05:28:04;95198.84;;;4.79;98.31
68197;BME280;55019;49.382;11.358;2022-09-29T05:30:30;95203.31;;;4.77;97.64
68197;BME280;55019;49.382;11.358;2022-09-29T05:32:55;95198.34;;;4.92;97.49
68197;BME280;55019;49.382;11.358;2022-09-29T05:35:21;95202.03;;;4.89;96.89
68197;BME280;55019;49.382;11.358;2022-09-29T05:37:46;95213.69;;;4.76;96.92
68197;BME280;55019;49.382;11.358;2022-09-29T05:40:11;95216.13;;;4.69;96.53
68197;BME280;55019;49.382;11.358;2022-09-29T05:42:37;95214.66;;;4.67;96.97
68197;BME280;55019;49.382;11.358;2022-09-29T05:45:03;95215.31;;;4.85;96.28
68197;BME280;55019;49.382;11.358;2022-09-29T05:47:28;95206.84;;;4.76;96.33
68197;BME280;55019;49.382;11.358;2022-09-29T05:49:53;95207.78;;;4.83;96.65
68197;BME280;55019;49.382;11.358;2022-09-29T05:52:19;95205.06;;;5.01;95.94
68197;BME280;55019;49.382;11.358;2022-09-29T05:54:44;95210.50;;;4.90;95.79
68197;BME280;55019;49.382;11.358;2022-09-29T05:57:10;95213.84;;;4.90;95.40
68197;BME280;55019;49.382;11.358;2022-09-29T05:59:35;95231.94;;;4.73;95.58
68197;BME280;55019;49.382;11.358;2022-09-29T06:02:01;95232.28;;;4.86;95.63
68197;BME280;55019;49.382;11.358;2022-09-29T06:04:26;95235.78;;;5.01;95.15
68197;BME280;55019;49.382;11.358;2022-09-29T06:06:51;95237.22;;;4.95;93.53
68197;BME280;55019;49.382;11.358;2022-09-29T06:09:17;95241.34;;;5.04;94.47
68197;BME280;55019;49.382;11.358;2022-09-29T06:11:43;95240.09;;;5.16;93.21
68197;BME280;55019;49.382;11.358;2022-09-29T06:14:08;95253.81;;;5.31;92.74
68197;BME280;55019;49.382;11.358;2022-09-29T06:16:33;95252.72;;;5.18;92.56
68197;BME280;55019;49.382;11.358;2022-09-29T06:19:00;95254.31;;;5.03;93.75
68197;BME280;55019;49.382;11.358;2022-09-29T06:21:29;95253.31;;;5.28;94.21
68197;BME280;55019;49.382;11.358;2022-09-29T06:23:56;95251.25;;;5.31;93.63
68197;BME280;55019;49.382;11.358;2022-09-29T06:26:22;95246.78;;;5.25;93.65
68197;BME280;55019;49.382;11.358;2022-09-29T06:28:48;95249.81;;;5.29;94.67
68197;BME280;55019;49.382;11.358;2022-09-29T06:31:16;95256.34;;;5.47;95.20
68197;BME280;55019;49.382;11.358;2022-09-29T06:33:42;95239.66;;;5.51;94.76
68197;BME280;55019;49.382;11.358;2022-09-29T06:36:21;95241.09;;;5.62;94.16
68197;BME280;55019;49.382;11.358;2022-09-29T06:39:09;95248.63;;;5.63;92.62
68197;BME280;55019;49.382;11.358;2022-09-29T06:41:34;95250.34;;;5.70;92.18
68197;BME280;55019;49.382;11.358;2022-09-29T06:44:00;95253.56;;;5.64;93.48
68197;BME280;55019;49.382;11.358;2022-09-29T06:46:26;95257.41;;;5.68;93.38
68197;BME280;55019;49.382;11.358;2022-09-29T06:48:55;95258.50;;;5.82;93.01
68197;BME280;55019;49.382;11.358;2022-09-29T06:51:21;95253.19;;;5.91;92.75
68197;BME280;55019;49.382;11.358;2022-09-29T06:53:48;95248.63;;;6.09;92.19
68197;BME280;55019;49.382;11.358;2022-09-29T06:56:14;95243.72;;;5.92;92.17
68197;BME280;55019;49.382;11.358;2022-09-29T06:58:39;95254.38;;;6.11;91.88
68197;BME280;55019;49.382;11.358;2022-09-29T07:01:05;95252.56;;;5.81;92.95
68197;BME280;55019;49.382;11.358;2022-09-29T07:03:31;95244.53;;;5.92;92.95
68197;BME280;55019;49.382;11.358;2022-09-29T07:06:01;95242.63;;;5.94;93.03
68197;BME280;55019;49.382;11.358;2022-09-29T07:08:26;95247.06;;;6.00;92.06
68197;BME280;55019;49.382;11.358;2022-09-29T07:10:53;95240.94;;;6.09;92.61
68197;BME280;55019;49.382;11.358;2022-09-29T07:13:19;95239.13;;;6.48;91.27
68197;BME280;55019;49.382;11.358;2022-09-29T07:15:44;95231.69;;;6.53;91.13
68197;BME280;55019;49.382;11.358;2022-09-29T07:18:12;95240.88;;;6.48;91.49
68197;BME280;55019;49.382;11.358;2022-09-29T07:20:37;95248.97;;;6.59;91.65
68197;BME280;55019;49.382;11.358;2022-09-29T07:23:05;95240.31;;;6.60;90.99
68197;BME280;55019;49.382;11.358;2022-09-29T07:25:31;95254.91;;;6.82;89.73
68197;BME280;55019;49.382;11.358;2022-09-29T07:27:56;95252.41;;;6.74;90.23
68197;BME280;55019;49.382;11.358;2022-09-29T07:30:21;95253.38;;;6.73;90.09
68197;BME280;55019;49.382;11.358;2022-09-29T07:32:47;95257.81;;;6.79;88.91
68197;BME280;55019;49.382;11.358;2022-09-29T07:35:12;95253.84;;;7.13;88.40
68197;BME280;55019;49.382;11.358;2022-09-29T07:37:38;95250.56;;;7.05;88.26
68197;BME280;55019;49.382;11.358;2022-09-29T07:40:03;95255.19;;;7.24;87.69
68197;BME280;55019;49.382;11.358;2022-09-29T07:42:29;95265.59;;;7.30;88.08
68197;BME280;55019;49.382;11.358;2022-09-29T07:44:55;95268.13;;;7.67;88.09
68197;BME280;55019;49.382;11.358;2022-09-29T07:47:20;95278.91;;;8.06;86.39
68197;BME280;55019;49.382;11.358;2022-09-29T07:49:46;95268.34;;;8.45;84.75
68197;BME280;55019;49.382;11.358;2022-09-29T07:52:12;95264.06;;;8.52;83.91
68197;BME280;55019;49.382;11.358;2022-09-29T07:54:38;95261.91;;;9.18;81.49
68197;BME280;55019;49.382;11.358;2022-09-29T07:57:03;95276.00;;;9.43;81.36
68197;BME280;55019;49.382;11.358;2022-09-29T07:59:29;95267.50;;;9.70;81.56
68197;BME280;55019;49.382;11.358;2022-09-29T08:01:55;95269.09;;;9.77;79.72
68197;BME280;55019;49.382;11.358;2022-09-29T08:04:20;95273.59;;;9.96;78.78
68197;BME280;55019;49.382;11.358;2022-09-29T08:06:46;95262.56;;;10.08;79.85
68197;BME280;55019;49.382;11.358;2022-09-29T08:09:12;95274.84;;;10.40;78.38
68197;BME280;55019;49.382;11.358;2022-09-29T08:11:40;95278.59;;;10.98;75.65
68197;BME280;55019;49.382;11.358;2022-09-29T08:14:06;95263.28;;;11.03;73.75
68197;BME280;55019;49.382;11.358;2022-09-29T08:16:32;95267.53;;;10.57;75.89
68197;BME280;55019;49.382;11.358;2022-09-29T08:18:59;95267.72;;;10.49;78.46
68197;BME280;55019;49.382;11.358;2022-09-29T08:21:25;95269.25;;;11.16;75.13
68197;BME280;55019;49.382;11.358;2022-09-29T08:23:51;95275.38;;;12.12;72.32
68197;BME280;55019;49.382;11.358;2022-09-29T08:26:19;95277.91;;;12.32;68.94
68197;BME280;55019;49.382;11.358;2022-09-29T08:28:44;95280.28;;;12.33;70.33
68197;BME280;55019;49.382;11.358;2022-09-29T08:31:16;95279.31;;;12.21;70.75
68197;BME280;55019;49.382;11.358;2022-09-29T08:33:45;95274.25;;;13.27;66.75
68197;BME280;55019;49.382;11.358;2022-09-29T08:36:11;95278.00;;;13.80;66.88
68197;BME280;55019;49.382;11.358;2022-09-29T08:38:43;95281.31;;;13.87;65.73
68197;BME280;55019;49.382;11.358;2022-09-29T08:46:31;95269.91;;;17.30;53.76
68197;BME280;55019;49.382;11.358;2022-09-29T08:48:59;95270.06;;;17.67;54.03
68197;BME280;55019;49.382;11.358;2022-09-29T08:53:56;95276.03;;;18.77;49.77
68197;BME280;55019;49.382;11.358;2022-09-29T08:56:24;95288.28;;;18.92;47.89
68197;BME280;55019;49.382;11.358;2022-09-29T08:58:50;95280.53;;;19.82;47.44
68197;BME280;55019;49.382;11.358;2022-09-29T09:01:47;95281.75;;;19.43;45.38
68197;BME280;55019;49.382;11.358;2022-09-29T09:07:36;95282.56;;;19.75;44.50
68197;BME280;55019;49.382;11.358;2022-09-29T09:23:55;95276.78;;;20.50;41.87
68197;BME280;55019;49.382;11.358;2022-09-29T09:28:56;95271.38;;;21.58;39.81
68197;BME280;55019;49.382;11.358;2022-09-29T09:31:31;95273.09;;;19.69;42.17
68197;BME280;55019;49.382;11.358;2022-09-29T09:34:04;95275.91;;;19.09;46.39
68197;BME280;55019;49.382;11.358;2022-09-29T09:36:51;95285.78;;;18.81;44.36
68197;BME280;55019;49.382;11.358;2022-09-29T09:39:28;95286.78;;;19.76;45.83
68197;BME280;55019;49.382;11.358;2022-09-29T09:41:58;95293.94;;;20.17;46.19
68197;BME280;55019;49.382;11.358;2022-09-29T09:44:38;95292.81;;;20.13;42.51
68197;BME280;55019;49.382;11.358;2022-09-29T09:47:25;95295.69;;;20.52;43.13
68197;BME280;55019;49.382;11.358;2022-09-29T09:50:16;95296.13;;;19.14;44.41
68197;BME280;55019;49.382;11.358;2022-09-29T09:52:48;95292.63;;;18.44;50.26
68197;BME280;55019;49.382;11.358;2022-09-29T09:55:17;95287.25;;;17.63;48.56
68197;BME280;55019;49.382;11.358;2022-09-29T10:00:38;95298.09;;;16.26;52.97
68197;BME280;55019;49.382;11.358;2022-09-29T10:03:07;95302.47;;;16.71;53.27
68197;BME280;55019;49.382;11.358;2022-09-29T10:05:40;95292.56;;;16.85;50.24
68197;BME280;55019;49.382;11.358;2022-09-29T10:08:11;95296.22;;;17.12;51.07
68197;BME280;55019;49.382;11.358;2022-09-29T10:10:39;95291.19;;;17.22;50.47
68197;BME280;55019;49.382;11.358;2022-09-29T10:13:10;95291.56;;;17.14;50.49
68197;BME280;55019;49.382;11.358;2022-09-29T10:15:41;95286.28;;;17.25;47.84
68197;BME280;55019;49.382;11.358;2022-09-29T10:20:40;95292.22;;;15.73;54.97
68197;BME280;55019;49.382;11.358;2022-09-29T10:23:19;95296.84;;;15.71;57.60
68197;BME280;55019;49.382;11.358;2022-09-29T10:25:57;95293.88;;;15.45;53.86
68197;BME280;55019;49.382;11.358;2022-09-29T10:28:25;95301.63;;;15.33;54.94
68197;BME280;55019;49.382;11.358;2022-09-29T10:30:53;95297.38;;;14.91;56.83
68197;BME280;55019;49.382;11.358;2022-09-29T10:33:22;95299.94;;;14.26;56.32
68197;BME280;55019;49.382;11.358;2022-09-29T10:35:50;95301.75;;;14.43;57.14
68197;BME280;55019;49.382;11.358;2022-09-29T10:38:26;95302.38;;;14.75;58.34
68197;BME280;55019;49.382;11.358;2022-09-29T10:40:58;95306.75;;;15.22;57.20
68197;BME280;55019;49.382;11.358;2022-09-29T10:43:35;95302.63;;;14.73;56.26
68197;BME280;55019;49.382;11.358;2022-09-29T10:46:01;95296.28;;;14.34;57.71
68197;BME280;55019;49.382;11.358;2022-09-29T10:48:27;95316.25;;;14.15;60.64
68197;BME280;55019;49.382;11.358;2022-09-29T10:50:58;95311.19;;;13.96;61.12
68197;BME280;55019;49.382;11.358;2022-09-29T10:53:29;95317.69;;;13.87;63.44
68197;BME280;55019;49.382;11.358;2022-09-29T10:55:57;95309.84;;;13.69;63.00
68197;BME280;55019;49.382;11.358;2022-09-29T10:58:34;95315.28;;;13.36;60.87
68197;BME280;55019;49.382;11.358;2022-09-29T11:01:13;95309.53;;;12.97;61.75
68197;BME280;55019;49.382;11.358;2022-09-29T11:03:49;95306.03;;;12.79;64.01
68197;BME280;55019;49.382;11.358;2022-09-29T11:06:16;95303.59;;;12.84;65.01
68197;BME280;55019;49.382;11.358;2022-09-29T11:13:59;95320.00;;;12.71;60.43
68197;BME280;55019;49.382;11.358;2022-09-29T11:16:32;95322.47;;;12.53;60.86
68197;BME280;55019;49.382;11.358;2022-09-29T11:19:07;95326.78;;;12.66;62.73
68197;BME280;55019;49.382;11.358;2022-09-29T11:30:02;95326.78;;;13.47;60.14
68197;BME280;55019;49.382;11.358;2022-09-29T11:35:25;95328.53;;;13.22;62.32
68197;BME280;55019;49.382;11.358;2022-09-29T11:41:16;95339.31;;;12.82;59.59
68197;BME280;55019;49.382;11.358;2022-09-29T11:47:42;95327.13;;;12.82;62.94
68197;BME280;55019;49.382;11.358;2022-09-29T11:50:08;95336.19;;;13.10;62.98
68197;BME280;55019;49.382;11.358;2022-09-29T11:55:26;95331.72;;;13.24;61.42
68197;BME280;55019;49.382;11.358;2022-09-29T12:00:54;95341.34;;;12.67;64.71
68197;BME280;55019;49.382;11.358;2022-09-29T12:17:43;95342.09;;;12.80;63.02
68197;BME280;55019;49.382;11.358;2022-09-29T12:20:23;95344.66;;;12.93;65.04
68197;BME280;55019;49.382;11.358;2022-09-29T12:22:51;95352.00;;;12.96;64.14
68197;BME280;55019;49.382;11.358;2022-09-29T12:25:23;95341.53;;;13.15;63.49
68197;BME280;55019;49.382;11.358;2022-09-29T12:27:55;95350.59;;;13.00;61.85
68197;BME280;55019;49.382;11.358;2022-09-29T12:30:28;95340.94;;;13.13;61.49
68197;BME280;55019;49.382;11.358;2022-09-29T12:33:14;95345.44;;;13.62;63.83
68197;BME280;55019;49.382;11.358;2022-09-29T12:38:36;95337.66;;;13.86;61.53
68197;BME280;55019;49.382;11.358;2022-09-29T12:41:15;95345.63;;;13.91;60.62
68197;BME280;55019;49.382;11.358;2022-09-29T12:47:08;95334.06;;;13.63;59.22
68197;BME280;55019;49.382;11.358;2022-09-29T12:50:09;95342.44;;;13.34;61.71
68197;BME280;55019;49.382;11.358;2022-09-29T12:52:48;95332.16;;;13.21;62.85
68197;BME280;55019;49.382;11.358;2022-09-29T12:55:40;95333.97;;;13.45;61.27
68197;BME280;55019;49.382;11.358;2022-09-29T12:58:14;95334.94;;;13.50;62.35
68197;BME280;55019;49.382;11.358;2022-09-29T13:00:48;95339.75;;;13.16;60.25
68197;BME280;55019;49.382;11.358;2022-09-29T13:03:38;95338.16;;;13.46;59.91
68197;BME280;55019;49.382;11.358;2022-09-29T13:06:28;95335.84;;;13.62;62.08
68197;BME280;55019;49.382;11.358;2022-09-29T13:09:23;95325.19;;;13.95;61.90
68197;BME280;55019;49.382;11.358;2022-09-29T13:12:09;95334.38;;;14.40;59.62
68197;BME280;55019;49.382;11.358;2022-09-29T13:14:39;95333.09;;;14.31;59.06
68197;BME280;55019;49.382;11.358;2022-09-29T13:17:21;95314.16;;;13.81;62.13
68197;BME280;55019;49.382;11.358;2022-09-29T13:23:17;95326.56;;;13.17;61.38
68197;BME280;55019;49.382;11.358;2022-09-29T13:26:25;95342.53;;;13.14;63.64
68197;BME280;55019;49.382;11.358;2022-09-29T13:29:11;95339.47;;;12.93;63.19
68197;BME280;55019;49.382;11.358;2022-09-29T13:31:38;95326.34;;;12.82;63.62
68197;BME280;55019;49.382;11.358;2022-09-29T13:34:05;95332.66;;;12.98;65.34
68197;BME280;55019;49.382;11.358;2022-09-29T13:36:38;95339.06;;;12.90;62.94
68197;BME280;55019;49.382;11.358;2022-09-29T13:39:07;95337.03;;;12.54;64.42
68197;BME280;55019;49.382;11.358;2022-09-29T13:41:42;95336.63;;;12.44;62.92
68197;BME280;55019;49.382;11.358;2022-09-29T13:46:42;95338.81;;;12.47;61.51
68197;BME280;55019;49.382;11.358;2022-09-29T13:56:48;95336.91;;;12.04;66.33
68197;BME280;55019;49.382;11.358;2022-09-29T13:59:22;95343.09;;;12.09;65.32
68197;BME280;55019;49.382;11.358;2022-09-29T14:01:48;95344.31;;;12.00;66.16
68197;BME280;55019;49.382;11.358;2022-09-29T14:10:13;95352.81;;;11.49;68.19
68197;BME280;55019;49.382;11.358;2022-09-29T14:12:41;95361.94;;;11.39;68.69
68197;BME280;55019;49.382;11.358;2022-09-29T14:15:15;95361.50;;;11.22;68.60
68197;BME280;55019;49.382;11.358;2022-09-29T14:17:45;95368.22;;;10.97;68.78
68197;BME280;55019;49.382;11.358;2022-09-29T14:33:16;95398.19;;;10.45;73.38
68197;BME280;55019;49.382;11.358;2022-09-29T14:38:44;95394.53;;;10.33;76.12
68197;BME280;55019;49.382;11.358;2022-09-29T14:43:54;95396.91;;;10.28;77.78
68197;BME280;55019;49.382;11.358;2022-09-29T14:52:42;95402.50;;;10.04;82.75
68197;BME280;55019;49.382;11.358;2022-09-29T15:00:15;95421.56;;;10.03;80.56
68197;BME280;55019;49.382;11.358;2022-09-29T15:02:47;95420.31;;;9.99;80.94
68197;BME280;55019;49.382;11.358;2022-09-29T15:05:25;95424.47;;;10.00;81.66
68197;BME280;55019;49.382;11.358;2022-09-29T15:07:50;95420.41;;;9.91;81.77
68197;BME280;55019;49.382;11.358;2022-09-29T15:13:33;95423.50;;;9.80;82.88
68197;BME280;55019;49.382;11.358;2022-09-29T15:16:02;95428.50;;;9.82;83.42
68197;BME280;55019;49.382;11.358;2022-09-29T15:21:16;95432.31;;;9.92;82.55
68197;BME280;55019;49.382;11.358;2022-09-29T15:24:10;95435.84;;;9.85;81.93
68197;BME280;55019;49.382;11.358;2022-09-29T15:26:40;95426.22;;;9.72;81.09
68197;BME280;55019;49.382;11.358;2022-09-29T15:29:07;95434.81;;;9.58;81.99
68197;BME280;55019;49.382;11.358;2022-09-29T15:31:38;95447.59;;;9.66;82.16
68197;BME280;55019;49.382;11.358;2022-09-29T15:34:03;95442.34;;;9.60;82.99
68197;BME280;55019;49.382;11.358;2022-09-29T15:36:37;95451.88;;;9.59;82.91
68197;BME280;55019;49.382;11.358;2022-09-29T15:39:08;95446.66;;;9.53;83.58
68197;BME280;55019;49.382;11.358;2022-09-29T15:41:37;95453.38;;;9.47;83.79
68197;BME280;55019;49.382;11.358;2022-09-29T15:44:16;95453.25;;;9.55;82.82
68197;BME280;55019;49.382;11.358;2022-09-29T15:46:50;95461.34;;;9.73;82.57
68197;BME280;55019;49.382;11.358;2022-09-29T15:49:29;95471.78;;;9.65;81.78
68197;BME280;55019;49.382;11.358;2022-09-29T15:52:15;95457.91;;;9.66;82.51
68197;BME280;55019;49.382;11.358;2022-09-29T15:54:43;95470.91;;;9.58;82.05
68197;BME280;55019;49.382;11.358;2022-09-29T16:00:41;95483.94;;;9.50;82.91
68197;BME280;55019;49.382;11.358;2022-09-29T16:03:27;95480.03;;;9.40;85.38
68197;BME280;55019;49.382;11.358;2022-09-29T16:06:12;95480.22;;;9.38;85.42
68197;BME280;55019;49.382;11.358;2022-09-29T16:08:42;95488.50;;;9.34;86.57
68197;BME280;55019;49.382;11.358;2022-09-29T16:11:21;95504.03;;;9.40;86.10